createdAt,value
2022-08-02T00:00:47.130Z,3.10
2022-08-02T00:03:15.683Z,3.10
2022-08-02T00:05:53.143Z,2.90
2022-08-02T00:08:22.616Z,3.23
2022-08-02T00:10:53.985Z,3.27
2022-08-02T00:13:22.554Z,3.40
2022-08-02T00:15:52.651Z,3.40
2022-08-02T00:18:21.310Z,3.70
2022-08-02T00:20:49.912Z,4.00
2022-08-02T00:23:18.817Z,3.60
2022-08-02T00:25:54.760Z,3.70
2022-08-02T00:28:27.186Z,3.40
2022-08-02T00:30:58.726Z,3.57
2022-08-02T00:34:05.167Z,3.60
2022-08-02T00:36:17.153Z,3.13
2022-08-02T00:38:46.496Z,2.97
2022-08-02T00:41:17.044Z,2.90
2022-08-02T00:43:46.081Z,2.80
2022-08-02T00:46:16.881Z,2.73
2022-08-02T00:48:45.916Z,2.90
2022-08-02T00:51:15.391Z,3.20
2022-08-02T00:53:46.204Z,3.40
2022-08-02T00:56:14.642Z,3.30
2022-08-02T00:58:43.381Z,3.10
2022-08-02T01:01:12.088Z,3.50
2022-08-02T01:03:42.142Z,3.63
2022-08-02T01:06:11.140Z,3.33
2022-08-02T01:08:40.245Z,3.17
2022-08-02T01:11:09.280Z,3.13
2022-08-02T01:13:38.158Z,3.27
2022-08-02T01:16:14.395Z,2.73
2022-08-02T01:18:49.380Z,3.40
2022-08-02T01:21:49.016Z,3.10
2022-08-02T01:24:47.085Z,2.90
2022-08-02T01:27:31.024Z,3.10
2022-08-02T01:30:02.842Z,3.17
2022-08-02T01:32:36.838Z,3.07
2022-08-02T01:35:11.257Z,3.13
2022-08-02T01:37:45.761Z,2.90
2022-08-02T01:40:18.631Z,3.23
2022-08-02T01:42:50.629Z,2.90
2022-08-02T01:45:23.185Z,3.00
2022-08-02T01:47:53.572Z,2.83
2022-08-02T01:50:27.839Z,2.93
2022-08-02T01:53:01.254Z,3.00
2022-08-02T01:55:35.186Z,3.10
2022-08-02T01:58:26.131Z,3.60
2022-08-02T02:00:59.113Z,3.30
2022-08-02T02:03:30.537Z,3.33
2022-08-02T02:06:04.829Z,3.47
2022-08-02T02:08:39.743Z,3.90
2022-08-02T02:12:09.351Z,3.47
2022-08-02T02:14:00.152Z,3.30
2022-08-02T02:16:32.098Z,3.27
2022-08-02T02:19:02.993Z,3.50
2022-08-02T02:21:31.754Z,3.40
2022-08-02T02:24:00.934Z,3.40
2022-08-02T02:26:32.488Z,3.10
2022-08-02T02:29:08.954Z,3.70
2022-08-02T02:31:40.912Z,3.50
2022-08-02T02:34:13.243Z,3.27
2022-08-02T02:36:46.902Z,3.23
2022-08-02T02:39:17.183Z,3.30
2022-08-02T02:41:46.992Z,3.30
2022-08-02T02:44:19.848Z,3.70
2022-08-02T02:46:53.865Z,3.50
2022-08-02T02:49:23.407Z,3.77
2022-08-02T02:51:52.890Z,3.90
2022-08-02T02:54:30.361Z,3.70
2022-08-02T02:57:05.711Z,3.90
2022-08-02T02:59:36.190Z,3.57
2022-08-02T03:02:13.671Z,3.67
2022-08-02T03:04:55.696Z,3.33
2022-08-02T03:07:27.464Z,3.40
2022-08-02T03:09:57.607Z,3.80
2022-08-02T03:12:31.811Z,3.63
2022-08-02T03:15:01.920Z,3.17
2022-08-02T03:17:41.309Z,3.07
2022-08-02T03:20:12.798Z,3.03
2022-08-02T03:22:42.023Z,2.73
2022-08-02T03:25:11.425Z,2.60
2022-08-02T03:27:40.071Z,2.97
2022-08-02T03:30:10.376Z,2.90
2022-08-02T03:32:41.756Z,2.93
2022-08-02T03:35:13.073Z,2.97
2022-08-02T03:37:43.113Z,3.40
2022-08-02T03:40:14.434Z,3.30
2022-08-02T03:42:43.594Z,3.27
2022-08-02T03:45:13.786Z,3.00
2022-08-02T03:47:45.394Z,2.80
2022-08-02T03:50:14.599Z,3.43
2022-08-02T03:52:43.858Z,3.07
2022-08-02T03:55:13.878Z,3.47
2022-08-02T03:57:43.992Z,3.27
2022-08-02T04:00:16.824Z,5.50
2022-08-02T04:02:46.982Z,7.30
2022-08-02T04:05:16.254Z,9.40
2022-08-02T04:08:05.948Z,8.80
2022-08-02T04:10:54.930Z,8.27
2022-08-02T04:13:29.887Z,8.00
2022-08-02T04:16:06.186Z,7.00
2022-08-02T04:18:45.468Z,5.30
2022-08-02T04:21:21.226Z,4.90
2022-08-02T04:23:50.986Z,4.67
2022-08-02T04:26:26.932Z,5.03
2022-08-02T04:28:57.987Z,4.23
2022-08-02T04:31:30.149Z,4.07
2022-08-02T04:34:00.752Z,3.73
2022-08-02T04:36:30.823Z,3.47
2022-08-02T04:39:00.537Z,3.43
2022-08-02T04:41:42.367Z,3.50
2022-08-02T04:44:13.409Z,3.50
2022-08-02T04:46:42.722Z,3.57
2022-08-02T04:49:12.967Z,3.50
2022-08-02T04:51:43.677Z,2.87
2022-08-02T04:54:12.820Z,3.30
2022-08-02T04:56:42.319Z,3.50
2022-08-02T04:59:12.515Z,3.50
2022-08-02T05:01:42.548Z,3.20
2022-08-02T05:04:13.135Z,3.63
2022-08-02T05:06:41.807Z,3.27
2022-08-02T05:09:10.476Z,3.30
2022-08-02T05:11:38.964Z,3.00
2022-08-02T05:14:07.659Z,3.00
2022-08-02T05:16:36.585Z,2.77
2022-08-02T05:19:05.187Z,3.40
2022-08-02T05:21:35.084Z,3.23
2022-08-02T05:24:03.779Z,3.10
2022-08-02T05:26:32.248Z,2.90
2022-08-02T05:29:00.668Z,2.90
2022-08-02T05:31:29.335Z,3.00
2022-08-02T05:33:58.007Z,2.97
2022-08-02T05:36:26.554Z,3.30
2022-08-02T05:39:04.666Z,3.30
2022-08-02T05:41:33.868Z,3.80
2022-08-02T05:44:02.363Z,3.80
2022-08-02T05:46:31.066Z,4.17
2022-08-02T05:49:00.671Z,4.07
2022-08-02T05:51:36.248Z,3.90
2022-08-02T05:54:13.975Z,3.53
2022-08-02T05:56:49.100Z,3.97
2022-08-02T05:59:29.073Z,4.07
2022-08-02T06:02:03.414Z,4.30
2022-08-02T06:04:39.322Z,4.30
2022-08-02T06:07:11.239Z,4.10
2022-08-02T06:09:42.774Z,4.10
2022-08-02T06:12:14.772Z,3.93
2022-08-02T06:14:43.974Z,3.83
2022-08-02T06:17:13.410Z,4.00
2022-08-02T06:19:52.390Z,3.80
2022-08-02T06:22:32.953Z,4.00
2022-08-02T06:25:48.056Z,3.90
2022-08-02T06:28:01.604Z,3.60
2022-08-02T06:30:31.278Z,4.00
2022-08-02T06:33:02.314Z,3.50
2022-08-02T06:35:38.652Z,3.43
2022-08-02T06:38:09.212Z,3.53
2022-08-02T06:40:47.114Z,3.87
2022-08-02T06:43:22.170Z,3.40
2022-08-02T06:45:51.199Z,3.53
2022-08-02T06:48:19.924Z,3.30
2022-08-02T06:50:48.514Z,3.30
2022-08-02T06:53:17.085Z,3.37
2022-08-02T06:55:47.160Z,3.03
2022-08-02T06:58:15.815Z,2.70
2022-08-02T07:00:44.724Z,2.80
2022-08-02T07:03:13.743Z,2.50
2022-08-02T07:05:43.786Z,2.70
2022-08-02T07:08:12.472Z,2.85
2022-08-02T07:10:41.150Z,3.05
2022-08-02T07:13:12.388Z,2.90
2022-08-02T07:15:49.058Z,3.03
2022-08-02T07:18:18.587Z,3.20
2022-08-02T07:20:47.346Z,3.30
2022-08-02T07:23:16.153Z,3.00
2022-08-02T07:26:02.605Z,3.15
2022-08-02T07:28:33.704Z,3.05
2022-08-02T07:31:02.616Z,2.33
2022-08-02T07:33:38.041Z,3.25
2022-08-02T07:36:09.647Z,3.38
2022-08-02T07:38:40.702Z,3.30
2022-08-02T07:41:10.077Z,3.03
2022-08-02T07:43:41.444Z,2.85
2022-08-02T07:46:11.307Z,2.63
2022-08-02T07:48:39.869Z,2.28
2022-08-02T07:51:08.369Z,3.00
2022-08-02T07:53:50.084Z,2.88
2022-08-02T07:56:20.412Z,3.00
2022-08-02T07:58:55.682Z,2.78
2022-08-02T08:01:24.311Z,2.90
2022-08-02T08:03:52.871Z,2.50
2022-08-02T08:06:28.852Z,2.50
2022-08-02T08:08:57.993Z,2.35
2022-08-02T08:11:27.038Z,2.38
2022-08-02T08:13:57.032Z,2.53
2022-08-02T08:16:26.348Z,2.28
2022-08-02T08:18:54.885Z,2.50
2022-08-02T08:21:23.840Z,2.60
2022-08-02T08:23:52.338Z,2.38
2022-08-02T08:26:21.166Z,2.13
2022-08-02T08:28:49.882Z,2.20
2022-08-02T08:31:19.929Z,2.20
2022-08-02T08:33:48.371Z,2.20
2022-08-02T08:36:17.331Z,2.08
2022-08-02T08:38:45.885Z,1.85
2022-08-02T08:41:17.468Z,2.42
2022-08-02T08:43:51.416Z,2.40
2022-08-02T08:46:28.480Z,2.20
2022-08-02T08:49:01.612Z,1.80
2022-08-02T08:51:37.255Z,1.90
2022-08-02T08:54:08.672Z,2.00
2022-08-02T08:56:37.832Z,2.10
2022-08-02T08:59:06.704Z,2.20
2022-08-02T09:01:49.735Z,1.95
2022-08-02T09:04:20.250Z,2.00
2022-08-02T09:06:49.118Z,1.92
2022-08-02T09:09:17.758Z,1.98
2022-08-02T09:11:46.552Z,1.90
2022-08-02T09:14:28.418Z,2.00
2022-08-02T09:17:08.158Z,1.85
2022-08-02T09:19:37.317Z,2.28
2022-08-02T09:22:09.095Z,2.00
2022-08-02T09:24:46.579Z,1.75
2022-08-02T09:27:16.597Z,1.80
2022-08-02T09:32:48.216Z,2.10
2022-08-02T09:36:05.938Z,1.90
2022-08-02T09:38:23.342Z,1.65
2022-08-02T09:40:55.088Z,1.70
2022-08-02T09:43:35.925Z,1.70
2022-08-02T09:46:14.985Z,1.98
2022-08-02T09:48:56.092Z,1.88
2022-08-02T09:51:26.690Z,1.80
2022-08-02T09:54:07.903Z,1.80
2022-08-02T09:56:45.681Z,1.70
2022-08-02T09:59:15.137Z,1.90
2022-08-02T10:01:51.307Z,1.70
2022-08-02T10:04:34.051Z,1.80
2022-08-02T10:07:05.460Z,1.90
2022-08-02T10:09:34.837Z,1.80
2022-08-02T10:12:04.890Z,1.90
2022-08-02T10:14:35.789Z,2.20
2022-08-02T10:17:06.229Z,1.90
2022-08-02T10:20:00.361Z,2.00
2022-08-02T10:22:26.465Z,1.90
2022-08-02T10:24:55.653Z,1.75
2022-08-02T10:27:26.448Z,1.77
2022-08-02T10:29:59.191Z,2.10
2022-08-02T10:32:31.199Z,1.50
2022-08-02T10:35:18.735Z,1.50
2022-08-02T10:37:55.384Z,1.80
2022-08-02T10:40:26.569Z,1.75
2022-08-02T10:43:00.650Z,1.50
2022-08-02T10:45:30.132Z,1.80
2022-08-02T10:48:04.612Z,2.00
2022-08-02T10:50:56.534Z,1.80
2022-08-02T10:53:27.208Z,1.55
2022-08-02T10:55:57.678Z,1.70
2022-08-02T10:58:30.430Z,2.03
2022-08-02T11:01:01.252Z,1.60
2022-08-02T11:03:41.729Z,1.83
2022-08-02T11:06:24.661Z,1.90
2022-08-02T11:09:31.990Z,1.80
2022-08-02T11:12:04.011Z,1.80
2022-08-02T11:14:33.887Z,1.98
2022-08-02T11:17:14.315Z,1.80
2022-08-02T11:20:17.645Z,1.75
2022-08-02T11:22:48.666Z,1.50
2022-08-02T11:25:54.677Z,1.60
2022-08-02T11:28:25.279Z,1.60
2022-08-02T11:31:04.187Z,1.60
2022-08-02T11:33:33.784Z,1.98
2022-08-02T11:36:04.530Z,1.80
2022-08-02T11:38:36.511Z,1.60
2022-08-02T11:41:10.443Z,1.77
2022-08-02T11:43:39.934Z,1.42
2022-08-02T11:46:15.386Z,1.40
2022-08-02T11:48:45.274Z,1.55
2022-08-02T11:51:15.679Z,1.63
2022-08-02T11:53:50.763Z,1.60
2022-08-02T11:56:24.779Z,1.80
2022-08-02T11:59:07.770Z,1.95
2022-08-02T12:01:45.817Z,2.67
2022-08-02T12:04:22.512Z,1.90
2022-08-02T12:06:59.492Z,1.73
2022-08-02T12:09:31.848Z,2.20
2022-08-02T12:12:02.059Z,1.98
2022-08-02T12:14:32.883Z,2.10
2022-08-02T12:17:18.986Z,1.88
2022-08-02T12:19:49.475Z,1.80
2022-08-02T12:22:20.311Z,1.60
2022-08-02T12:24:56.803Z,1.65
2022-08-02T12:27:34.055Z,1.60
2022-08-02T12:30:08.635Z,1.70
2022-08-02T12:32:38.056Z,1.45
2022-08-02T12:35:09.941Z,1.70
2022-08-02T12:37:40.887Z,1.60
2022-08-02T12:40:25.217Z,1.65
2022-08-02T12:42:57.701Z,1.60
2022-08-02T12:45:41.297Z,1.80
2022-08-02T12:48:11.031Z,1.52
2022-08-02T12:50:40.441Z,1.38
2022-08-02T12:53:10.966Z,1.40
2022-08-02T12:55:59.874Z,1.80
2022-08-02T12:58:31.848Z,1.60
2022-08-02T13:01:02.564Z,1.60
2022-08-02T13:04:07.935Z,1.70
2022-08-02T13:09:15.587Z,1.70
2022-08-02T13:11:46.006Z,1.65
2022-08-02T13:14:15.672Z,1.67
2022-08-02T13:16:46.330Z,1.70
2022-08-02T13:19:16.465Z,1.67
2022-08-02T13:22:01.877Z,1.45
2022-08-02T13:24:40.173Z,1.60
2022-08-02T13:27:23.220Z,1.63
2022-08-02T13:29:52.427Z,1.70
2022-08-02T13:32:22.107Z,1.70
2022-08-02T13:34:51.118Z,1.80
2022-08-02T13:37:19.775Z,1.75
2022-08-02T13:40:11.770Z,1.50
2022-08-02T13:42:38.710Z,1.80
2022-08-02T13:45:12.734Z,1.83
2022-08-02T13:48:04.798Z,1.50
2022-08-02T13:50:33.944Z,1.67
2022-08-02T13:53:02.603Z,1.60
2022-08-02T13:55:31.499Z,1.70
2022-08-02T13:58:01.401Z,1.38
2022-08-02T14:00:34.977Z,1.48
2022-08-02T14:03:06.952Z,1.38
2022-08-02T14:05:46.995Z,1.40
2022-08-02T14:08:17.373Z,1.20
2022-08-02T14:10:46.834Z,1.30
2022-08-02T14:13:16.991Z,1.40
2022-08-02T14:15:46.103Z,1.40
2022-08-02T14:18:15.654Z,1.38
2022-08-02T14:20:46.304Z,1.40
2022-08-02T14:23:15.192Z,1.33
2022-08-02T14:25:43.880Z,1.42
2022-08-02T14:28:12.410Z,1.20
2022-08-02T14:30:42.378Z,1.38
2022-08-02T14:33:11.115Z,1.20
2022-08-02T14:35:39.719Z,1.20
2022-08-02T14:38:08.367Z,1.20
2022-08-02T14:40:36.968Z,1.30
2022-08-02T14:43:05.931Z,1.20
2022-08-02T14:45:40.814Z,1.40
2022-08-02T14:48:12.736Z,1.20
2022-08-02T14:50:41.522Z,1.40
2022-08-02T14:53:12.472Z,1.35
2022-08-02T14:55:43.199Z,1.33
2022-08-02T14:58:12.279Z,1.20
2022-08-02T15:00:42.722Z,1.33
2022-08-02T15:03:13.879Z,1.30
2022-08-02T15:05:42.630Z,1.20
2022-08-02T15:08:11.208Z,1.20
2022-08-02T15:10:45.629Z,1.20
2022-08-02T15:13:14.458Z,1.50
2022-08-02T15:15:43.828Z,1.20
2022-08-02T15:18:15.299Z,1.10
2022-08-02T15:20:57.199Z,1.30
2022-08-02T15:23:34.823Z,1.23
2022-08-02T15:26:06.511Z,1.27
2022-08-02T15:28:35.930Z,1.30
2022-08-02T15:31:05.319Z,1.20
2022-08-02T15:33:35.924Z,1.25
2022-08-02T15:36:05.638Z,1.20
2022-08-02T15:38:35.467Z,1.23
2022-08-02T15:41:05.097Z,1.10
2022-08-02T15:44:00.033Z,1.10
2022-08-02T15:46:30.837Z,1.10
2022-08-02T15:49:02.949Z,1.20
2022-08-02T15:51:32.276Z,1.20
2022-08-02T15:54:02.183Z,1.20
2022-08-02T15:56:31.460Z,1.10
2022-08-02T15:59:00.863Z,1.23
2022-08-02T16:01:37.615Z,1.10
2022-08-02T16:04:09.652Z,1.10
2022-08-02T16:06:38.815Z,1.00
2022-08-02T16:09:07.937Z,1.15
2022-08-02T16:11:37.004Z,1.70
2022-08-02T16:14:06.411Z,1.10
2022-08-02T16:16:37.304Z,1.20
2022-08-02T16:19:47.552Z,1.15
2022-08-02T16:21:58.348Z,1.20
2022-08-02T16:24:27.879Z,1.20
2022-08-02T16:26:57.180Z,1.00
2022-08-02T16:29:25.916Z,1.10
2022-08-02T16:31:54.397Z,1.00
2022-08-02T16:34:24.593Z,1.17
2022-08-02T16:36:53.228Z,1.40
2022-08-02T16:39:21.846Z,1.10
2022-08-02T16:41:52.648Z,1.00
2022-08-02T16:44:29.077Z,0.90
2022-08-02T16:47:01.058Z,1.10
2022-08-02T16:50:04.188Z,1.00
2022-08-02T16:52:20.963Z,1.10
2022-08-02T16:54:50.269Z,1.00
2022-08-02T16:57:19.881Z,1.05
2022-08-02T16:59:57.639Z,1.10
2022-08-02T17:02:27.825Z,1.00
2022-08-02T17:04:58.189Z,1.20
2022-08-02T17:08:07.808Z,1.20
2022-08-02T17:10:18.778Z,1.10
2022-08-02T17:12:51.274Z,1.20
2022-08-02T17:16:00.814Z,1.20
2022-08-02T17:18:08.982Z,1.10
2022-08-02T17:20:39.151Z,1.20
2022-08-02T17:23:09.129Z,1.33
2022-08-02T17:25:45.068Z,1.40
2022-08-02T17:28:21.680Z,1.35
2022-08-02T17:31:00.873Z,1.40
2022-08-02T17:33:29.500Z,1.48
2022-08-02T17:36:01.562Z,1.30
2022-08-02T17:38:31.746Z,1.50
2022-08-02T17:41:00.785Z,1.40
2022-08-02T17:43:33.101Z,1.38
2022-08-02T17:46:08.327Z,1.30
2022-08-02T17:48:55.031Z,1.50
2022-08-02T17:52:15.690Z,2.00
2022-08-02T17:54:15.037Z,1.80
2022-08-02T17:56:48.351Z,1.77
2022-08-02T17:59:20.584Z,2.42
2022-08-02T18:01:53.251Z,1.80
2022-08-02T18:04:27.485Z,1.92
2022-08-02T18:06:59.183Z,1.80
2022-08-02T18:09:34.695Z,1.77
2022-08-02T18:12:03.390Z,1.67
2022-08-02T18:14:32.075Z,1.88
2022-08-02T18:17:00.902Z,1.83
2022-08-02T18:19:33.131Z,2.10
2022-08-02T18:22:12.534Z,2.20
2022-08-02T18:24:41.730Z,2.40
2022-08-02T18:27:14.347Z,2.50
2022-08-02T18:29:43.030Z,2.60
2022-08-02T18:32:15.945Z,2.40
2022-08-02T18:35:04.609Z,3.70
2022-08-02T18:37:43.925Z,4.65
2022-08-02T18:40:15.074Z,3.20
2022-08-02T18:42:43.633Z,3.28
2022-08-02T18:45:20.047Z,2.70
2022-08-02T18:50:39.174Z,2.63
2022-08-02T18:53:09.430Z,2.58
2022-08-02T18:56:00.229Z,2.58
2022-08-02T18:58:30.011Z,2.30
2022-08-02T19:01:00.168Z,2.00
2022-08-02T19:03:37.191Z,2.15
2022-08-02T19:06:06.787Z,2.20
2022-08-02T19:08:37.462Z,2.38
2022-08-02T19:11:07.649Z,2.22
2022-08-02T19:16:25.316Z,2.50
2022-08-02T19:19:06.315Z,2.20
2022-08-02T19:22:16.586Z,2.20
2022-08-02T19:24:25.405Z,2.40
2022-08-02T19:26:55.142Z,2.40
2022-08-02T19:29:42.028Z,2.50
2022-08-02T19:32:40.113Z,2.60
2022-08-02T19:35:02.178Z,2.70
2022-08-02T19:37:37.072Z,2.75
2022-08-02T19:40:10.165Z,2.85
2022-08-02T19:44:20.496Z,2.78
2022-08-02T19:45:45.117Z,2.60
2022-08-02T19:48:17.370Z,2.70
2022-08-02T19:50:49.071Z,2.50
2022-08-02T19:53:18.495Z,2.53
2022-08-02T19:56:00.000Z,2.50
2022-08-02T19:58:30.783Z,2.63
2022-08-02T20:01:01.336Z,2.38
2022-08-02T20:03:52.640Z,2.60
2022-08-02T20:06:18.616Z,2.55
2022-08-02T20:08:53.292Z,2.78
2022-08-02T20:11:27.260Z,2.90
2022-08-02T20:13:55.789Z,2.60
2022-08-02T20:16:27.933Z,2.78
2022-08-02T20:18:57.109Z,2.58
2022-08-02T20:21:36.266Z,2.60
2022-08-02T20:24:07.397Z,2.75
2022-08-02T20:26:39.813Z,2.58
2022-08-02T20:29:17.574Z,2.60
2022-08-02T20:32:08.643Z,3.20
2022-08-02T20:34:37.312Z,2.90
2022-08-02T20:37:59.129Z,2.38
2022-08-02T20:39:54.500Z,4.97
2022-08-02T20:42:25.802Z,2.72
2022-08-02T20:44:55.518Z,3.90
2022-08-02T20:47:27.597Z,3.70
2022-08-02T20:50:28.114Z,3.00
2022-08-02T20:53:00.640Z,2.50
2022-08-02T20:55:30.811Z,2.50
2022-08-02T20:58:02.842Z,2.45
2022-08-02T21:00:32.773Z,2.75
2022-08-02T21:03:02.796Z,2.67
2022-08-02T21:05:54.333Z,2.90
2022-08-02T21:08:22.519Z,2.92
2022-08-02T21:10:53.404Z,3.00
2022-08-02T21:13:26.233Z,2.90
2022-08-02T21:15:57.084Z,3.13
2022-08-02T21:18:40.232Z,2.92
2022-08-02T21:21:10.829Z,3.10
2022-08-02T21:23:48.542Z,2.80
2022-08-02T21:26:27.890Z,3.28
2022-08-02T21:29:03.229Z,3.15
2022-08-02T21:31:35.751Z,2.90
2022-08-02T21:34:27.265Z,2.92
2022-08-02T21:36:56.566Z,2.90
2022-08-02T21:39:25.308Z,2.90
2022-08-02T21:41:54.361Z,2.70
2022-08-02T21:44:24.867Z,3.00
2022-08-02T21:46:55.501Z,3.00
2022-08-02T21:49:40.534Z,2.80
2022-08-02T21:52:10.197Z,2.78
2022-08-02T21:54:40.411Z,3.03
2022-08-02T21:57:15.137Z,2.90
2022-08-02T21:59:46.860Z,2.80
2022-08-02T22:02:16.704Z,3.10
2022-08-02T22:04:48.066Z,3.10
2022-08-02T22:07:24.068Z,3.00
2022-08-02T22:09:53.341Z,2.97
2022-08-02T22:12:25.879Z,2.90
2022-08-02T22:15:00.619Z,2.90
2022-08-02T22:17:50.955Z,2.78
2022-08-02T22:20:20.796Z,2.92
2022-08-02T22:22:51.122Z,3.30
2022-08-02T22:25:31.558Z,3.10
2022-08-02T22:28:37.983Z,3.28
2022-08-02T22:30:59.868Z,3.20
2022-08-02T22:33:59.841Z,3.13
2022-08-02T22:36:30.528Z,3.30
2022-08-02T22:38:59.372Z,3.30
2022-08-02T22:42:00.180Z,3.30
2022-08-02T22:44:17.653Z,2.97
2022-08-02T22:46:50.149Z,3.30
2022-08-02T22:49:38.466Z,3.30
2022-08-02T22:52:10.619Z,3.30
2022-08-02T22:54:39.547Z,3.03
2022-08-02T22:57:11.084Z,3.13
2022-08-02T22:58:45.466Z,2.60
2022-08-02T22:58:47.333Z,2.45
2022-08-02T22:59:41.564Z,3.10
2022-08-02T23:02:12.299Z,3.10
2022-08-02T23:04:41.076Z,2.97
2022-08-02T23:07:09.711Z,3.40
2022-08-02T23:09:38.698Z,3.40
2022-08-02T23:12:07.582Z,3.37
2022-08-02T23:14:36.860Z,3.20
2022-08-02T23:17:23.368Z,3.27
2022-08-02T23:19:53.403Z,3.50
2022-08-02T23:22:29.209Z,3.07
2022-08-02T23:25:00.244Z,3.30
2022-08-02T23:27:29.412Z,3.67
2022-08-02T23:29:58.941Z,3.47
2022-08-02T23:32:28.588Z,3.50
2022-08-02T23:34:59.202Z,3.30
2022-08-02T23:37:27.726Z,3.50
2022-08-02T23:39:56.852Z,3.30
2022-08-02T23:42:25.830Z,3.40
2022-08-02T23:44:54.975Z,3.30
2022-08-02T23:47:23.659Z,3.33
2022-08-02T23:49:52.208Z,3.63
2022-08-02T23:52:22.170Z,3.77
2022-08-02T23:54:50.634Z,3.47
2022-08-02T23:57:20.847Z,3.50
2022-08-02T23:59:51.412Z,3.77
